Terminal Aerodrome Forecast
Issued by NWS Wilmington, OH

Home | Current Version | Previous Version | Text Only | Print | Product List | Glossary On
Versions: 1 2 3 4 5 6 7 8 9 10 11 12 13 14 15 16 17 18 19 20 21
000
FTUS41 KILN 061500 AAA
TAFCVG
TAF AMD
KCVG 061524Z 0615/0718 24007KT P6SM FEW040 SCT250
     FM070000 18005KT P6SM SCT250
     FM071300 23011KT P6SM BKN035 OVC250=

USA.gov is the U.S. government's official web portal to all federal, state and local government web resources and services.